Last 24 Hours

Pipes Wash Canyon

Hourly Data | America/Los_Angeles
as of 8/31/26 2:44 AM PDT
Date & Time Temp (°F) RH (%) Dew Pt (°F) Wind Dir (°) Wind Spd (mph) Wind Gust (mph) Wind Gst Dir (°) Pressure (mb) Barometric Press (inHg) Soil Temp (°F) Solar Rad (W/m2) Latest Rain (In) Daily Rain (In) Daily Min Temp (°F) Daily Max Wind (mph) Daily Max Temp (°F) Daily ETo (in)
8/31/26 - 0200 65.6 28 31.5 W | 275 1.9 5.3 WNW | 285 1,009.9 29.79 91.7 0 0.00 0.00 65.4 5.3 71.3 0.000
8/31/26 - 0100 70.8 27 35.0 W | 278 1.7 6.1 N | 8 1,008.8 29.76 91.9 0 0.00 0.00 67.4 22.6 90.9 0.246
8/31/26 - 0000 75.9 23 35.7 SW | 235 3.7 8.6 SW | 215 1,007.2 29.71 92.0 0 0.00 0.00 67.4 22.6 90.9 0.246
8/30/26 - 2300 75.9 28 40.5 WSW | 238 3.3 8.8 SSW | 212 1,007.4 29.72 92.0 0 0.00 0.00 67.4 22.6 90.9 0.244
8/30/26 - 2200 74.6 32 43.2 WSW | 254 2.9 8.1 WNW | 287 1,008.0 29.74 91.9 0 0.00 0.00 67.4 22.6 90.9 0.243
8/30/26 - 2100 75.3 34 45.1 W | 264 2.8 9.2 W | 259 1,007.6 29.73 91.8 0 0.00 0.00 67.4 22.6 90.9 0.243
8/30/26 - 2000 78.1 34 47.6 WSW | 251 3.5 12.9 SW | 216 1,005.9 29.68 91.5 2 0.00 0.00 67.4 22.6 90.9 0.242
8/30/26 - 1900 79.9 35 50.1 WSW | 240 4.2 13.4 SSW | 204 1,004.9 29.65 91.1 83 0.00 0.00 67.4 22.6 90.9 0.241
8/30/26 - 1800 84.7 29 48.5 W | 267 4.0 19.5 SSW | 201 1,004.0 29.62 90.7 285 0.00 0.00 67.4 22.6 90.9 0.237
8/30/26 - 1700 86.6 23 44.9 WSW | 243 5.7 21.0 S | 185 1,003.5 29.60 90.3 510 0.00 0.00 67.4 22.6 90.9 0.228
8/30/26 - 1600 88.6 20 43.1 W | 259 4.3 22.4 SW | 224 1,003.0 29.59 89.9 702 0.00 0.00 67.4 22.6 90.9 0.210
8/30/26 - 1500 89.1 20 42.9 ESE | 104 4.0 22.6 SE | 131 1,003.5 29.60 89.7 848 0.00 0.00 67.4 22.6 90.9 0.187
8/30/26 - 1400 88.9 22 45.7 E | 96 4.9 22.1 ESE | 123 1,004.4 29.63 89.5 932 0.00 0.00 67.4 22.1 89.0 0.160
8/30/26 - 1300 86.5 25 46.3 E | 98 5.7 20.2 ESE | 109 1,005.5 29.66 89.5 954 0.00 0.00 67.4 22.1 88.1 0.130
8/30/26 - 1200 84.8 26 46.1 E | 99 7.3 22.1 ESE | 109 1,006.9 29.70 89.7 909 0.00 0.00 67.4 22.1 86.0 0.099
8/30/26 - 1100 84.1 27 46.5 E | 100 4.9 15.1 SE | 124 1,007.3 29.72 89.9 812 0.00 0.00 67.4 15.1 86.0 0.069
8/30/26 - 1000 83.1 27 45.6 E | 99 5.2 14.7 E | 87 1,007.1 29.71 90.2 664 0.00 0.00 67.4 14.7 83.4 0.044
8/30/26 - 0900 80.6 29 45.4 E | 89 2.4 7.5 ESE | 108 1,007.9 29.73 90.6 466 0.00 0.00 67.4 7.7 80.8 0.023
8/30/26 - 0800 77.3 35 47.2 NW | 325 1.7 5.3 W | 281 1,008.8 29.76 90.9 277 0.00 0.00 67.4 7.7 77.8 0.010
8/30/26 - 0700 71.8 39 45.3 WNW | 284 3.5 7.2 WNW | 286 1,010.1 29.80 91.3 59 0.00 0.00 67.4 7.7 73.5 0.004
8/30/26 - 0600 69.0 40 43.7 WNW | 286 3.4 7.7 W | 270 1,010.3 29.80 91.7 0 0.00 0.00 67.4 7.7 73.5 0.002
8/30/26 - 0500 69.4 40 44.1 WNW | 284 2.9 6.4 W | 275 1,009.8 29.79 92.0 0 0.00 0.00 67.4 7.0 73.5 0.002
8/30/26 - 0400 71.2 40 45.8 W | 272 2.6 7.0 WNW | 284 1,009.1 29.77 92.3 0 0.00 0.00 67.4 7.0 73.5 0.001
8/30/26 - 0300 71.6 39 45.2 WSW | 255 2.5 6.4 SW | 216 1,008.5 29.75 92.5 0 0.00 0.00 69.4 6.4 73.5 0.001
8/30/26 - 0200 71.8 40 46.0 W | 270 2.6 6.4 W | 269 1,008.6 29.75 92.8 0 0.00 0.00 69.4 6.4 72.3 0.000
Max 89.1 40 50.1 - 7.3 22.6 - 1,010.3 29.80 92.8 954 0.00 0.00 69.4 22.6 90.9 0.246
Avg 78.2 30 44.0 - 3.7 12.2 - 1,007.1 29.71 91.1 300 0.00 - - - - -
Min 65.6 20 31.5 - 1.7 5.3 - 1,003.0 29.59 89.5 0 0.00 0.00 65.4 5.3 71.3 0.000
Total - - - - - - - - - - - 0.00 - - - - -